Quick Links (Output Below):   Max & Min Temps   /   Climate Reports   /   Zone Forecasts
River Forecasts   /   Forestry Forecasts   /   Aviation Forecasts   /   Radars   /   Features

Terminal Aerodrome Forecast (Harrison)

Pick a Site:
Arkadelphia | El Dorado | Fayetteville | Fort Smith | Harrison | Highfill | Hot Springs | Jonesboro
Little Rock | Monticello | Mountain Home | Pine Bluff | Texarkana
 Forecast 

KHRO 241000Z 2410/2506 15012KT P6SM VCTS SCT025 OVC040CB
      TEMPO 2410/2412 6SM -TSRA BR OVC025CB
     FM241200 15012KT P6SM VCTS SCT025 OVC040CB
      TEMPO 2412/2416 4SM -TSRA BR OVC025CB
     FM241600 16008G18KT P6SM VCTS BKN050CB OVC100 PROB30 2419/2424
      2SM TSRA BKN010 OVC025CB
     FM250000 17010G20KT 5SM -TSRA BR OVC025CB=


 Latest METARs (Observations) 
How to Decode METARs
10Z KHRO 240953Z AUTO 16012KT 10SM -RA OVC024 21/18 A3000 RMK AO2
         RAB08E24B45 SLP145 P0000 T02060178
         
09Z KHRO 240853Z AUTO 12007KT 10SM FEW031 BKN055 BKN070 19/16 A3000
         RMK AO2 SLP148 T01890161 56018
         
08Z KHRO 240753Z AUTO 13008KT 10SM BKN034 19/16 A3002 RMK AO2 SLP154
         T01890156
         
07Z KHRO 240653Z AUTO 12009KT 10SM CLR 19/16 A3002 RMK AO2 SLP155
         T01890156
         
06Z KHRO 240553Z AUTO 14009KT 10SM SCT034 19/16 A3005 RMK AO2 SLP168
         T01940156 10217 20189 402280133 58007
         
05Z KHRO 240453Z AUTO 13007KT 10SM CLR 19/16 A3008 RMK AO2 SLP177
         T01890156
         
04Z KHRO 240353Z AUTO 13010KT 10SM BKN034 19/16 A3007 RMK AO2 SLP174
         T01940156
         
03Z KHRO 240253Z AUTO 14010KT 10SM FEW028 19/16 A3008 RMK AO2 SLP176
         T01940161 55010
         
02Z KHRO 240153Z AUTO 14010G16KT 10SM CLR 20/16 A3007 RMK AO2 SLP177
         T02000161
         
01Z KHRO 240053Z AUTO 13009KT 10SM CLR 21/17 A3009 RMK AO2 SLP180
         T02060167
         
***** Today's Observations (Above) *****


Back to Main Page
http://www.srh.noaa.gov/lzk/qfcst.php

USA.gov is the U.S. government's official web portal to all federal, state and local government web resources and services.